createdAt,value
2022-08-04T00:01:06.979Z,97590.56
2022-08-04T00:03:33.081Z,97594.84
2022-08-04T00:05:59.137Z,97585.72
2022-08-04T00:08:25.178Z,97586.53
2022-08-04T00:10:51.233Z,97593.78
2022-08-04T00:13:17.285Z,97590.28
2022-08-04T00:15:43.319Z,97589.22
2022-08-04T00:18:09.758Z,97583.84
2022-08-04T00:20:35.825Z,97587.06
2022-08-04T00:23:02.536Z,97588.16
2022-08-04T00:25:28.634Z,97590.03
2022-08-04T00:27:54.689Z,97589.50
2022-08-04T00:30:20.751Z,97589.22
2022-08-04T00:32:46.767Z,97588.44
2022-08-04T00:35:12.789Z,97589.22
2022-08-04T00:37:38.842Z,97584.91
2022-08-04T00:40:04.935Z,97586.78
2022-08-04T00:42:30.971Z,97598.38
2022-08-04T00:44:57.023Z,97595.66
2022-08-04T00:47:23.320Z,97601.03
2022-08-04T00:49:49.538Z,97600.78
2022-08-04T00:52:32.823Z,97595.94
2022-08-04T00:54:59.557Z,97594.56
2022-08-04T00:57:30.070Z,97592.69
2022-08-04T01:00:00.828Z,97591.91
2022-08-04T01:02:26.856Z,97596.19
2022-08-04T01:04:52.883Z,97592.09
2022-08-04T01:07:19.071Z,97597.19
2022-08-04T01:09:45.450Z,97594.00
2022-08-04T01:12:11.493Z,97589.16
2022-08-04T01:14:38.089Z,97585.69
2022-08-04T01:17:04.117Z,97583.22
2022-08-04T01:19:30.144Z,97589.16
2022-08-04T01:21:56.711Z,97586.44
2022-08-04T01:24:23.627Z,97585.13
2022-08-04T01:26:57.218Z,97579.47
2022-08-04T01:29:24.521Z,97585.63
2022-08-04T01:31:55.911Z,97584.28
2022-08-04T01:34:21.939Z,97582.66
2022-08-04T01:36:50.101Z,97577.28
2022-08-04T01:39:16.444Z,97579.97
2022-08-04T01:41:42.530Z,97583.72
2022-08-04T01:44:24.640Z,97577.56
2022-08-04T01:46:50.665Z,97569.75
2022-08-04T01:49:17.515Z,97570.03
2022-08-04T01:51:44.429Z,97571.88
2022-08-04T01:54:10.490Z,97572.94
2022-08-04T01:56:36.517Z,97574.25
2022-08-04T01:59:02.570Z,97567.00
2022-08-04T02:01:28.623Z,97569.72
2022-08-04T02:04:20.715Z,97567.03
2022-08-04T02:06:40.792Z,97563.56
2022-08-04T02:09:06.824Z,97560.06
2022-08-04T02:11:32.836Z,97564.06
2022-08-04T02:13:58.904Z,97561.13
2022-08-04T02:16:24.960Z,97561.38
2022-08-04T02:18:50.997Z,97564.06
2022-08-04T02:21:17.031Z,97561.56
2022-08-04T02:23:43.049Z,97555.97
2022-08-04T02:26:19.338Z,97557.78
2022-08-04T02:28:48.882Z,97559.88
2022-08-04T02:31:14.935Z,97546.53
2022-08-04T02:33:40.967Z,97551.63
2022-08-04T02:36:07.971Z,97548.69
2022-08-04T02:38:34.028Z,97554.00
2022-08-04T02:41:00.509Z,97548.63
2022-08-04T02:43:52.016Z,97546.50
2022-08-04T02:46:17.752Z,97545.16
2022-08-04T02:48:44.272Z,97545.97
2022-08-04T02:51:10.298Z,97543.03
2022-08-04T02:53:36.339Z,97543.81
2022-08-04T02:56:02.431Z,97540.66
2022-08-04T02:58:28.483Z,97545.28
2022-08-04T03:00:55.182Z,97540.47
2022-08-04T03:03:21.283Z,97538.63
2022-08-04T03:05:49.972Z,97534.53
2022-08-04T03:08:27.372Z,97527.03
2022-08-04T03:10:53.395Z,97529.38
2022-08-04T03:13:19.996Z,97525.28
2022-08-04T03:15:46.080Z,97536.81
2022-08-04T03:18:12.105Z,97523.66
2022-08-04T03:20:38.126Z,97524.25
2022-08-04T03:23:13.337Z,97525.22
2022-08-04T03:25:57.516Z,97528.06
2022-08-04T03:28:23.804Z,97518.97
2022-08-04T03:30:49.835Z,97526.94
2022-08-04T03:33:15.859Z,97530.06
2022-08-04T03:35:41.917Z,97541.31
2022-08-04T03:38:07.949Z,97529.03
2022-08-04T03:40:33.963Z,97533.69
2022-08-04T03:43:00.333Z,97520.75
2022-08-04T03:45:26.378Z,97529.47
2022-08-04T03:47:52.402Z,97530.53
2022-08-04T03:50:18.460Z,97529.22
2022-08-04T03:52:45.496Z,97533.75
2022-08-04T03:55:13.475Z,97531.06
2022-08-04T03:57:39.549Z,97529.47
2022-08-04T04:00:06.658Z,97535.44
2022-08-04T04:02:32.811Z,97528.25
2022-08-04T04:04:58.960Z,97542.66
2022-08-04T04:07:35.917Z,97539.94
2022-08-04T04:10:06.181Z,97536.47
2022-08-04T04:12:33.484Z,97535.41
2022-08-04T04:14:59.508Z,97538.09
2022-08-04T04:17:25.525Z,97533.03
2022-08-04T04:19:51.555Z,97538.91
2022-08-04T04:22:24.745Z,97538.63
2022-08-04T04:24:50.803Z,97538.63
2022-08-04T04:27:16.843Z,97536.69
2022-08-04T04:29:42.871Z,97539.38
2022-08-04T04:32:08.939Z,97542.09
2022-08-04T04:34:34.953Z,97540.25
2022-08-04T04:37:00.979Z,97542.91
2022-08-04T04:39:27.060Z,97546.25
2022-08-04T04:41:53.136Z,97541.47
2022-08-04T04:44:19.807Z,97545.28
2022-08-04T04:46:46.441Z,97542.44
2022-08-04T04:49:12.879Z,97542.72
2022-08-04T04:51:40.961Z,97544.13
2022-08-04T04:54:07.039Z,97540.75
2022-08-04T04:56:33.045Z,97543.94
2022-08-04T04:58:59.089Z,97549.09
2022-08-04T05:01:25.526Z,97548.88
2022-08-04T05:03:51.604Z,97554.53
2022-08-04T05:06:17.627Z,97536.56
2022-08-04T05:08:47.401Z,97541.13
2022-08-04T05:11:15.079Z,97537.34
2022-08-04T05:14:38.594Z,97546.47
2022-08-04T05:16:27.173Z,97537.28
2022-08-04T05:18:53.230Z,97547.16
2022-08-04T05:21:19.642Z,97546.81
2022-08-04T05:23:45.721Z,97549.38
2022-08-04T05:26:12.522Z,97547.22
2022-08-04T05:28:39.323Z,97547.94
2022-08-04T05:31:05.439Z,97547.78
2022-08-04T05:33:31.516Z,97545.66
2022-08-04T05:36:18.397Z,97551.03
2022-08-04T05:38:45.841Z,97547.88
2022-08-04T05:41:11.901Z,97546.50
2022-08-04T05:43:38.287Z,97552.00
2022-08-04T05:46:04.332Z,97544.22
2022-08-04T05:48:30.349Z,97552.41
2022-08-04T05:51:00.608Z,97553.81
2022-08-04T05:53:27.197Z,97547.47
2022-08-04T05:55:58.850Z,97549.22
2022-08-04T05:58:25.502Z,97541.25
2022-08-04T06:00:52.499Z,97549.56
2022-08-04T06:05:54.207Z,97546.66
2022-08-04T06:08:20.236Z,97549.03
2022-08-04T06:10:46.182Z,97548.22
2022-08-04T06:13:48.920Z,97540.09
2022-08-04T06:15:58.103Z,97530.22
2022-08-04T06:18:32.864Z,97537.56
2022-08-04T06:21:01.674Z,97542.38
2022-08-04T06:23:29.674Z,97538.97
2022-08-04T06:25:56.397Z,97540.78
2022-08-04T06:28:23.128Z,97535.56
2022-08-04T06:30:49.160Z,97539.41
2022-08-04T06:33:15.282Z,97533.38
2022-08-04T06:35:41.735Z,97534.50
2022-08-04T06:38:07.733Z,97536.97
2022-08-04T06:40:34.434Z,97525.34
2022-08-04T06:43:00.724Z,97535.78
2022-08-04T06:45:26.715Z,97536.97
2022-08-04T06:47:52.674Z,97535.91
2022-08-04T06:51:32.343Z,97539.13
2022-08-04T06:53:04.681Z,97537.06
2022-08-04T06:55:30.632Z,97538.44
2022-08-04T06:58:00.919Z,97533.09
2022-08-04T07:00:28.731Z,97530.94
2022-08-04T07:02:54.665Z,97528.53
2022-08-04T07:05:20.605Z,97530.69
2022-08-04T07:07:56.948Z,97530.56
2022-08-04T07:10:25.256Z,97535.53
2022-08-04T07:12:54.009Z,97529.13
2022-08-04T07:15:20.217Z,97527.34
2022-08-04T07:17:46.166Z,97524.78
2022-08-04T07:20:15.871Z,97517.91
2022-08-04T07:23:00.154Z,97525.59
2022-08-04T07:25:58.453Z,97530.44
2022-08-04T07:28:12.072Z,97527.63
2022-08-04T07:30:38.061Z,97528.28
2022-08-04T07:33:04.021Z,97531.00
2022-08-04T07:36:09.223Z,97528.78
2022-08-04T07:38:16.182Z,97521.94
2022-08-04T07:40:42.231Z,97526.28
2022-08-04T07:43:08.167Z,97521.25
2022-08-04T07:45:34.142Z,97513.00
2022-08-04T07:48:05.023Z,97520.16
2022-08-04T07:50:31.894Z,97513.00
2022-08-04T07:53:22.410Z,97520.69
2022-08-04T07:55:43.773Z,97521.69
2022-08-04T07:58:09.773Z,97516.97
2022-08-04T08:00:35.711Z,97516.63
2022-08-04T08:03:01.720Z,97513.66
2022-08-04T08:05:27.758Z,97515.25
2022-08-04T08:07:54.754Z,97520.59
2022-08-04T08:10:20.973Z,97516.31
2022-08-04T08:12:51.209Z,97517.53
2022-08-04T08:15:18.169Z,97519.94
2022-08-04T08:17:58.540Z,97513.03
2022-08-04T08:20:29.628Z,97515.44
2022-08-04T08:22:56.254Z,97518.84
2022-08-04T08:25:22.199Z,97520.56
2022-08-04T08:27:56.116Z,97520.69
2022-08-04T08:30:23.432Z,97523.44
2022-08-04T08:32:50.321Z,97516.59
2022-08-04T08:35:17.096Z,97511.16
2022-08-04T08:37:43.553Z,97504.19
2022-08-04T08:40:09.611Z,97514.41
2022-08-04T08:42:35.561Z,97510.56
2022-08-04T08:45:01.512Z,97520.69
2022-08-04T08:47:27.507Z,97510.47
2022-08-04T08:50:01.921Z,97513.31
2022-08-04T08:52:56.579Z,97509.44
2022-08-04T08:55:15.886Z,97513.41
2022-08-04T08:57:59.425Z,97513.84
2022-08-04T09:00:31.584Z,97520.03
2022-08-04T09:03:04.403Z,97522.00
2022-08-04T09:05:31.139Z,97520.59
2022-08-04T09:07:57.104Z,97523.34
2022-08-04T09:10:23.092Z,97515.63
2022-08-04T09:12:49.039Z,97515.81
2022-08-04T09:15:15.827Z,97528.84
2022-08-04T09:17:42.769Z,97521.47
2022-08-04T09:20:08.719Z,97526.50
2022-08-04T09:22:34.656Z,97517.91
2022-08-04T09:25:00.658Z,97509.78
2022-08-04T09:27:26.602Z,97516.38
2022-08-04T09:29:52.542Z,97511.97
2022-08-04T09:32:18.542Z,97509.50
2022-08-04T09:34:44.527Z,97502.56
2022-08-04T09:37:10.471Z,97513.50
2022-08-04T09:39:36.512Z,97499.34
2022-08-04T09:42:02.462Z,97503.00
2022-08-04T09:44:50.936Z,97497.56
2022-08-04T09:47:15.006Z,97499.19
2022-08-04T09:49:41.665Z,97499.78
2022-08-04T09:52:08.276Z,97493.56
2022-08-04T09:54:34.818Z,97489.97
2022-08-04T09:57:01.228Z,97492.34
2022-08-04T09:59:27.329Z,97493.50
2022-08-04T10:01:58.878Z,97485.75
2022-08-04T10:04:26.363Z,97481.53
2022-08-04T10:06:52.861Z,97472.47
2022-08-04T10:09:20.863Z,97478.84
2022-08-04T10:11:55.419Z,97482.38
2022-08-04T10:14:23.283Z,97480.75
2022-08-04T10:16:49.902Z,97472.69
2022-08-04T10:19:16.462Z,97484.31
2022-08-04T10:21:58.938Z,97473.97
2022-08-04T10:24:26.009Z,97477.13
2022-08-04T10:26:57.195Z,97473.19
2022-08-04T10:29:24.188Z,97476.38
2022-08-04T10:31:50.865Z,97477.06
2022-08-04T10:34:17.358Z,97474.88
2022-08-04T10:36:43.844Z,97475.94
2022-08-04T10:39:13.971Z,97464.97
2022-08-04T10:41:59.690Z,97470.94
2022-08-04T10:44:26.017Z,97465.19
2022-08-04T10:46:52.595Z,97460.47
2022-08-04T10:49:21.584Z,97459.88
2022-08-04T10:51:57.505Z,97459.56
2022-08-04T10:54:25.532Z,97452.84
2022-08-04T10:56:55.158Z,97451.25
2022-08-04T10:59:23.009Z,97455.06
2022-08-04T11:01:59.871Z,97458.19
2022-08-04T11:04:29.148Z,97453.44
2022-08-04T11:06:55.560Z,97448.28
2022-08-04T11:09:22.907Z,97445.59
2022-08-04T11:11:56.948Z,97447.88
2022-08-04T11:14:27.979Z,97438.06
2022-08-04T11:16:54.730Z,97438.63
2022-08-04T11:19:23.389Z,97439.59
2022-08-04T11:22:09.893Z,97436.31
2022-08-04T11:24:36.526Z,97434.22
2022-08-04T11:27:03.083Z,97440.31
2022-08-04T11:29:29.740Z,97431.47
2022-08-04T11:31:55.700Z,97430.94
2022-08-04T11:34:22.804Z,97432.03
2022-08-04T11:36:49.599Z,97419.09
2022-08-04T11:39:16.347Z,97427.13
2022-08-04T11:41:42.594Z,97416.97
2022-08-04T11:44:12.713Z,97413.84
2022-08-04T11:46:38.930Z,97417.13
2022-08-04T11:49:05.618Z,97408.56
2022-08-04T11:51:31.898Z,97408.94
2022-08-04T11:53:58.477Z,97406.78
2022-08-04T11:56:36.461Z,97408.13
2022-08-04T11:59:04.753Z,97408.91
2022-08-04T12:01:30.779Z,97408.41
2022-08-04T12:04:00.452Z,97414.31
2022-08-04T12:06:31.722Z,97413.25
2022-08-04T12:08:58.327Z,97402.91
2022-08-04T12:11:27.963Z,97402.34
2022-08-04T12:14:00.218Z,97403.22
2022-08-04T12:16:30.222Z,97396.75
2022-08-04T12:21:53.040Z,97399.22
2022-08-04T12:24:22.780Z,97400.63
2022-08-04T12:26:49.003Z,97397.69
2022-08-04T12:29:15.542Z,97395.84
2022-08-04T12:31:42.157Z,97397.94
2022-08-04T12:34:08.675Z,97399.16
2022-08-04T12:36:35.098Z,97401.78
2022-08-04T12:39:01.735Z,97400.91
2022-08-04T12:41:28.513Z,97393.72
2022-08-04T12:43:55.925Z,97392.63
2022-08-04T12:46:22.599Z,97380.06
2022-08-04T12:48:49.181Z,97391.41
2022-08-04T12:52:05.666Z,97384.78
2022-08-04T12:54:02.350Z,97386.28
2022-08-04T12:56:28.736Z,97377.28
2022-08-04T12:58:55.320Z,97385.50
2022-08-04T13:02:08.453Z,97380.47
2022-08-04T13:04:08.398Z,97382.63
2022-08-04T13:06:34.851Z,97371.84
2022-08-04T13:09:01.239Z,97372.06
2022-08-04T13:11:27.707Z,97374.81
2022-08-04T13:14:17.246Z,97364.44
2022-08-04T13:16:42.312Z,97373.28
2022-08-04T13:19:13.122Z,97354.94
2022-08-04T13:21:49.874Z,97354.75
2022-08-04T13:24:32.745Z,97353.03
2022-08-04T13:27:03.828Z,97347.59
2022-08-04T13:29:58.779Z,97347.94
2022-08-04T13:32:16.898Z,97338.50
2022-08-04T13:34:49.050Z,97338.53
2022-08-04T13:37:21.039Z,97334.03
2022-08-04T13:39:55.639Z,97328.91
2022-08-04T13:42:22.722Z,97330.16
2022-08-04T13:44:49.666Z,97327.88
2022-08-04T15:09:47.376Z,97287.88
2022-08-04T15:12:13.362Z,97293.13
2022-08-04T15:14:39.316Z,97288.06
2022-08-04T15:17:09.845Z,97282.75
2022-08-04T15:19:38.217Z,97289.06
2022-08-04T15:22:04.159Z,97286.59
2022-08-04T15:24:31.068Z,97282.31
2022-08-04T15:26:57.017Z,97283.19
2022-08-04T15:29:22.988Z,97295.16
2022-08-04T15:32:04.437Z,97281.03
2022-08-04T15:34:31.246Z,97282.94
2022-08-04T15:36:57.734Z,97278.81
2022-08-04T15:39:23.918Z,97275.19
2022-08-04T15:41:54.961Z,97277.53
2022-08-04T15:44:21.613Z,97271.22
2022-08-04T15:46:47.602Z,97269.63
2022-08-04T15:49:13.550Z,97270.88
2022-08-04T15:51:39.543Z,97273.94
2022-08-04T15:54:08.526Z,97277.25
2022-08-04T15:56:42.988Z,97266.53
2022-08-04T15:59:15.692Z,97272.38
2022-08-04T16:02:11.517Z,97265.34
2022-08-04T16:04:36.235Z,97272.50
2022-08-04T16:07:02.275Z,97263.63
2022-08-04T16:09:46.347Z,97261.66
2022-08-04T16:12:13.774Z,97261.50
2022-08-04T16:14:39.883Z,97256.31
2022-08-04T16:17:05.869Z,97257.72
2022-08-04T16:19:35.029Z,97264.84
2022-08-04T16:22:01.626Z,97258.53
2022-08-04T16:24:27.566Z,97256.53
2022-08-04T16:26:54.757Z,97266.00
2022-08-04T16:29:22.526Z,97255.44
2022-08-04T16:31:48.510Z,97262.41
2022-08-04T16:34:39.468Z,97254.72
2022-08-04T16:37:00.410Z,97261.44
2022-08-04T16:39:26.436Z,97258.69
2022-08-04T16:41:52.437Z,97259.91
2022-08-04T16:44:43.002Z,97254.03
2022-08-04T16:47:21.328Z,97256.44
2022-08-04T16:49:49.505Z,97255.94
2022-08-04T16:52:18.080Z,97260.38
2022-08-04T16:54:44.028Z,97264.44
2022-08-04T16:57:09.971Z,97270.31
2022-08-04T16:59:35.981Z,97264.22
2022-08-04T17:02:02.016Z,97258.50
2022-08-04T17:04:28.024Z,97256.63
2022-08-04T17:06:54.365Z,97260.09
2022-08-04T17:09:23.340Z,97259.41
2022-08-04T17:11:52.254Z,97254.78
2022-08-04T17:14:19.102Z,97269.09
2022-08-04T17:16:45.092Z,97263.28
2022-08-04T17:19:19.928Z,97264.22
2022-08-04T17:21:50.011Z,97270.53
2022-08-04T17:24:17.980Z,97269.84
2022-08-04T17:26:45.313Z,97270.75
2022-08-04T17:29:19.826Z,97266.41
2022-08-04T17:31:46.193Z,97265.56
2022-08-04T17:37:17.790Z,97267.91
2022-08-04T17:39:44.493Z,97277.47
2022-08-04T17:42:15.189Z,97277.69
2022-08-04T17:44:41.884Z,97279.22
2022-08-04T17:47:12.454Z,97275.94
2022-08-04T17:49:52.870Z,97280.66
2022-08-04T17:52:39.686Z,97285.09
2022-08-04T17:55:05.319Z,97284.97
2022-08-04T17:57:31.259Z,97287.13
2022-08-04T17:59:59.362Z,97288.28
2022-08-04T18:02:31.763Z,97293.97
2022-08-04T18:05:07.011Z,97297.16
2022-08-04T18:08:45.968Z,97294.31
2022-08-04T18:10:30.994Z,97295.47
2022-08-04T18:13:00.976Z,97291.91
2022-08-04T18:15:26.939Z,97292.91
2022-08-04T18:18:22.562Z,97301.88
2022-08-04T18:20:50.238Z,97298.59
2022-08-04T18:23:16.758Z,97296.31
2022-08-04T18:25:51.166Z,97301.31
2022-08-04T18:28:22.470Z,97295.94
2022-08-04T18:30:55.495Z,97305.56
2022-08-04T18:33:40.336Z,97305.59
2022-08-04T18:36:35.340Z,97313.06
2022-08-04T18:38:55.692Z,97313.44
2022-08-04T18:41:24.026Z,97317.09
2022-08-04T18:43:55.982Z,97316.50
2022-08-04T18:46:22.803Z,97322.19
2022-08-04T18:48:52.848Z,97328.16
2022-08-04T18:54:04.978Z,97323.38
2022-08-04T18:56:32.862Z,97330.75
2022-08-04T18:59:00.045Z,97332.34
2022-08-04T19:01:30.211Z,97343.75
2022-08-04T19:04:32.854Z,97344.06
2022-08-04T19:07:00.981Z,97342.69
2022-08-04T19:09:51.755Z,97340.81
2022-08-04T19:12:15.750Z,97346.13
2022-08-04T19:14:57.763Z,97346.94
2022-08-04T19:20:25.712Z,97355.13
2022-08-04T19:24:29.658Z,97357.56
2022-08-04T19:26:01.711Z,97361.22
2022-08-04T19:28:29.301Z,97361.38
2022-08-04T19:30:56.937Z,97357.38
2022-08-04T19:33:25.376Z,97364.91
2022-08-04T19:35:51.559Z,97368.09
2022-08-04T19:38:17.507Z,97366.16
2022-08-04T19:40:50.586Z,97370.81
2022-08-04T19:43:19.108Z,97365.94
2022-08-04T19:45:45.933Z,97368.50
2022-08-04T19:48:19.346Z,97377.91
2022-08-04T19:50:45.706Z,97377.38
2022-08-04T19:53:18.902Z,97374.19
2022-08-04T19:55:49.661Z,97377.97
2022-08-04T19:58:16.245Z,97383.06
2022-08-04T20:00:44.811Z,97387.69
2022-08-04T20:03:20.152Z,97393.34
2022-08-04T20:05:55.189Z,97380.38
2022-08-04T20:08:21.789Z,97383.22
2022-08-04T20:10:51.953Z,97384.31
2022-08-04T20:13:18.677Z,97383.03
2022-08-04T20:15:57.294Z,97389.97
2022-08-04T20:18:36.645Z,97389.09
2022-08-04T20:21:11.331Z,97393.94
2022-08-04T20:23:48.466Z,97395.63
2022-08-04T20:26:16.832Z,97404.47
2022-08-04T20:28:42.814Z,97403.94
2022-08-04T20:31:12.026Z,97393.84
2022-08-04T20:33:49.383Z,97396.38
2022-08-04T20:36:20.913Z,97396.47
2022-08-04T20:38:52.007Z,97401.22
2022-08-04T20:41:19.163Z,97398.53
2022-08-04T20:43:45.121Z,97399.41
2022-08-04T20:46:18.088Z,97399.84
2022-08-04T20:48:44.827Z,97404.16
2022-08-04T20:51:10.832Z,97395.66
2022-08-04T20:53:53.145Z,97405.88
2022-08-04T20:56:31.038Z,97403.06
2022-08-04T20:58:57.619Z,97405.88
2022-08-04T21:01:23.620Z,97405.59
2022-08-04T21:04:00.645Z,97403.50
2022-08-04T21:06:26.968Z,97396.94
2022-08-04T21:08:57.301Z,97406.34
2022-08-04T21:11:23.742Z,97408.53
2022-08-04T21:13:52.165Z,97409.13
2022-08-04T21:16:53.959Z,97408.91
2022-08-04T21:19:04.714Z,97409.63
2022-08-04T21:21:35.624Z,97408.50
2022-08-04T21:24:01.766Z,97404.00
2022-08-04T21:26:27.789Z,97399.09
2022-08-04T21:28:53.783Z,97405.31
2022-08-04T21:34:05.707Z,97408.09
2022-08-04T21:36:31.641Z,97406.38
2022-08-04T21:39:00.072Z,97409.50
2022-08-04T21:41:27.300Z,97406.88
2022-08-04T21:43:54.127Z,97413.69
2022-08-04T21:46:20.937Z,97421.44
2022-08-04T21:52:00.245Z,97416.34
2022-08-04T21:54:18.884Z,97415.69
2022-08-04T21:59:31.224Z,97418.72
2022-08-04T22:01:57.247Z,97413.13
2022-08-04T22:04:26.055Z,97412.44
2022-08-04T22:06:52.748Z,97417.13
2022-08-04T22:09:19.034Z,97411.66
2022-08-04T22:11:48.734Z,97419.25
2022-08-04T22:14:15.242Z,97416.09
2022-08-04T22:16:41.178Z,97411.81
2022-08-04T22:19:07.105Z,97412.78
2022-08-04T22:21:39.163Z,97413.25
2022-08-04T22:24:14.175Z,97412.03
2022-08-04T22:26:40.471Z,97411.63
2022-08-04T22:29:06.413Z,97411.63
2022-08-04T22:31:53.229Z,97411.59
2022-08-04T22:34:22.230Z,97413.63
2022-08-04T22:36:50.001Z,97410.69
2022-08-04T22:39:15.982Z,97413.50
2022-08-04T22:41:48.617Z,97407.00
2022-08-04T22:44:25.612Z,97406.63
2022-08-04T22:46:58.918Z,97411.44
2022-08-04T22:49:31.404Z,97412.66
2022-08-04T22:51:57.940Z,97410.56
2022-08-04T22:54:26.035Z,97412.78
2022-08-04T22:56:54.562Z,97410.81
2022-08-04T22:59:22.559Z,97407.63
2022-08-04T23:02:01.338Z,97400.09
2022-08-04T23:04:27.683Z,97403.47
2022-08-04T23:06:53.670Z,97404.91
2022-08-04T23:09:21.963Z,97407.69
2022-08-04T23:11:53.963Z,97403.00
2022-08-04T23:14:28.946Z,97398.41
2022-08-04T23:16:55.952Z,97396.41
2022-08-04T23:19:24.757Z,97392.03
2022-08-04T23:22:01.757Z,97393.91
2022-08-04T23:24:29.934Z,97394.50
2022-08-04T23:26:56.863Z,97385.97
2022-08-04T23:29:22.927Z,97392.44
2022-08-04T23:31:59.494Z,97387.56
2022-08-04T23:34:26.383Z,97384.66
2022-08-04T23:36:55.417Z,97385.28
2022-08-04T23:39:21.516Z,97381.19
2022-08-04T23:41:50.871Z,97376.94
2022-08-04T23:44:25.477Z,97380.28
2022-08-04T23:46:53.426Z,97375.34
2022-08-04T23:49:21.923Z,97378.97
2022-08-04T23:51:47.924Z,97372.03
2022-08-04T23:54:15.800Z,97369.91
2022-08-04T23:56:49.461Z,97373.22
2022-08-04T23:59:17.994Z,97358.22
